There are multiple Weather-warnings   Click here for more information


Meteo18 Weather Cam more information Meteo18 Weather Cam


warning for Thunderstorms more information blitzortung!


Rain radar more information rain snow radar


Visit our other weather sites:

Template documentation
and downloads

And another site



Weather Underground History page Text

Daily Summary for April 5, 2017 Units:  English    Metric   Both
« Previous Day
Next Day »
Daily Weekly Monthly Yearly Custom
  High: Low: Average:
Temperature: 58.8 °F 46 °F 51.6 °F
Dew Point: 47.1 °F 42.1 °F 44.6 °F
Humidity: 93 % 56 % 78 %
Wind Speed: 16 mph 0 mph 5.8 mph
Wind Gust: 23 mph - -
Wind:- - South
Pressure: 30.4 in 30.3 in -
Precipitation: 0 in    
Historical Graphs
 
 
Tabular Data for April 5, 2017
Time Temperature Dew Point Pressure Wind Wind Speed Wind Gust Humidity Rainfall Rate (Hourly)
00:02 54 °F 46.2 °F 30.3 in NNE 5 mph 14 mph 75 % 0 in
00:07 54 °F 46.2 °F 30.3 in North 14 mph 14 mph 75 % 0 in
00:12 53.8 °F 46 °F 30.3 in West 1 mph 15 mph 75 % 0 in
00:17 53.4 °F 45.7 °F 30.3 in NNE 6 mph 15 mph 75 % 0 in
00:22 53.4 °F 46 °F 30.3 in NNW 5 mph 14 mph 76 % 0 in
00:27 53.2 °F 45.9 °F 30.3 in NNE 10 mph 14 mph 76 % 0 in
00:32 53.1 °F 45.7 °F 30.3 in NW 10 mph 14 mph 76 % 0 in
00:42 52.9 °F 45.9 °F 30.3 in NNE 7 mph 16 mph 77 % 0 in
00:47 52.5 °F 45.5 °F 30.3 in NNE 4 mph 16 mph 77 % 0 in
00:52 52.3 °F 45.7 °F 30.3 in NNW 6 mph 14 mph 78 % 0 in
00:57 52.2 °F 45.5 °F 30.3 in NNW 3 mph 14 mph 78 % 0 in
01:02 52.2 °F 45.9 °F 30.3 in NW 7 mph 16 mph 79 % 0 in
01:07 52 °F 45.7 °F 30.3 in NE 6 mph 16 mph 79 % 0 in
01:12 51.6 °F 45.7 °F 30.3 in NNE 3 mph 16 mph 80 % 0 in
01:17 51.4 °F 45.5 °F 30.3 in North 3 mph 16 mph 80 % 0 in
01:22 51.3 °F 45.7 °F 30.3 in North 6 mph 16 mph 81 % 0 in
01:32 50.9 °F 45.3 °F 30.3 in North 5 mph 14 mph 81 % 0 in
01:37 50.7 °F 45.5 °F 30.3 in NNE 4 mph 14 mph 82 % 0 in
01:42 50.5 °F 45.3 °F 30.3 in NNE 8 mph 14 mph 82 % 0 in
01:47 50.4 °F 45.3 °F 30.3 in NNW 5 mph 14 mph 83 % 0 in
01:57 50.2 °F 45.1 °F 30.3 in NE 5 mph 15 mph 83 % 0 in
02:02 50 °F 45.3 °F 30.3 in NNE 6 mph 15 mph 84 % 0 in
02:07 49.8 °F 45.1 °F 30.3 in NNE 6 mph 15 mph 84 % 0 in
02:12 49.6 °F 45 °F 30.3 in North 6 mph 15 mph 84 % 0 in
02:17 49.6 °F 45.3 °F 30.3 in NNE 5 mph 15 mph 85 % 0 in
02:22 49.5 °F 45.1 °F 30.3 in North 5 mph 16 mph 85 % 0 in
02:27 49.3 °F 45.3 °F 30.3 in NNW 6 mph 16 mph 86 % 0 in
02:32 49.3 °F 45.3 °F 30.3 in NE 5 mph 11 mph 86 % 0 in
02:37 48.9 °F 45 °F 30.3 in NNW 2 mph 11 mph 86 % 0 in
02:42 48.7 °F 45 °F 30.3 in NW 2 mph 10 mph 87 % 0 in
02:47 48.7 °F 45 °F 30.3 in West 1 mph 7 mph 87 % 0 in
02:52 48.6 °F 44.8 °F 30.3 in North 1 mph 7 mph 87 % 0 in
02:57 48.4 °F 44.8 °F 30.3 in Calm   6 mph 87 % 0 in
03:02 48 °F 44.6 °F 30.3 in Calm   4 mph 88 % 0 in
03:07 48 °F 44.6 °F 30.3 in WNW 1 mph 3 mph 88 % 0 in
03:12 47.7 °F 44.2 °F 30.3 in WSW 1 mph 3 mph 88 % 0 in
03:17 47.5 °F 44.1 °F 30.3 in Calm   3 mph 88 % 0 in
03:22 47.5 °F 44.4 °F 30.3 in Calm   3 mph 89 % 0 in
03:27 47.1 °F 44.1 °F 30.3 in West 1 mph 1 mph 89 % 0 in
03:32 47.1 °F 44.4 °F 30.3 in Calm   2 mph 90 % 0 in
03:37 46.9 °F 43.9 °F 30.3 in Calm   2 mph 89 % 0 in
03:42 46.9 °F 44.4 °F 30.3 in WNW 1 mph 2 mph 91 % 0 in
03:47 46.8 °F 44.1 °F 30.3 in Calm   2 mph 90 % 0 in
03:52 46.6 °F 44.1 °F 30.3 in NNW 2 mph 3 mph 91 % 0 in
03:57 46.6 °F 44.1 °F 30.3 in North 3 mph 4 mph 91 % 0 in
04:02 46.6 °F 44.1 °F 30.3 in WNW 1 mph 4 mph 91 % 0 in
04:07 46.8 °F 44.2 °F 30.3 in WNW 1 mph 4 mph 91 % 0 in
04:12 46.6 °F 44.1 °F 30.3 in WNW 2 mph 4 mph 91 % 0 in
04:17 46.8 °F 44.6 °F 30.3 in West 1 mph 4 mph 92 % 0 in
04:22 46.9 °F 44.8 °F 30.3 in Calm   4 mph 92 % 0 in
04:27 46.9 °F 44.8 °F 30.3 in NNW 1 mph 4 mph 92 % 0 in
04:32 47.1 °F 45 °F 30.3 in NNE 6 mph 6 mph 92 % 0 in
04:37 47.3 °F 45.1 °F 30.3 in NNW 7 mph 15 mph 92 % 0 in
04:42 47.3 °F 45.1 °F 30.3 in WNW 8 mph 15 mph 92 % 0 in
04:47 47.5 °F 45.3 °F 30.3 in North 4 mph 15 mph 92 % 0 in
04:52 47.3 °F 45.1 °F 30.3 in North 5 mph 15 mph 92 % 0 in
04:57 47.5 °F 45.5 °F 30.3 in North 10 mph 11 mph 93 % 0 in
05:02 47.5 °F 45.5 °F 30.3 in NNE 6 mph 11 mph 93 % 0 in
05:07 47.5 °F 45.5 °F 30.3 in NNW 6 mph 10 mph 93 % 0 in
05:12 47.5 °F 45.5 °F 30.3 in NNE 2 mph 10 mph 93 % 0 in
05:17 47.7 °F 45.5 °F 30.3 in North 5 mph 9 mph 92 % 0 in
05:22 47.7 °F 45.5 °F 30.3 in NNE 4 mph 11 mph 92 % 0 in
05:32 47.7 °F 45.5 °F 30.3 in NNW 8 mph 11 mph 92 % 0 in
05:37 47.7 °F 45.1 °F 30.3 in NW 4 mph 12 mph 91 % 0 in
05:42 47.7 °F 45.1 °F 30.3 in West 2 mph 12 mph 91 % 0 in
05:47 47.7 °F 45.1 °F 30.3 in NNW 3 mph 10 mph 91 % 0 in
05:52 47.7 °F 45.1 °F 30.3 in NNE 3 mph 10 mph 91 % 0 in
05:57 47.7 °F 45.1 °F 30.3 in NW 1 mph 9 mph 91 % 0 in
06:02 47.7 °F 45.1 °F 30.3 in NNW 2 mph 12 mph 91 % 0 in
06:07 47.7 °F 45.1 °F 30.3 in West 1 mph 12 mph 91 % 0 in
06:12 47.7 °F 45.1 °F 30.3 in North 3 mph 12 mph 91 % 0 in
06:17 47.7 °F 45.1 °F 30.3 in NNW 2 mph 8 mph 91 % 0 in
06:22 47.7 °F 45 °F 30.3 in NNW 8 mph 8 mph 90 % 0 in
06:27 47.7 °F 45 °F 30.3 in NNW 2 mph 10 mph 90 % 0 in
06:32 47.5 °F 44.8 °F 30.3 in NNW 3 mph 10 mph 90 % 0 in
06:37 47.1 °F 44.4 °F 30.3 in NW 2 mph 12 mph 90 % 0 in
06:42 46.9 °F 44.2 °F 30.3 in NNW 2 mph 12 mph 90 % 0 in
06:47 46.8 °F 44.1 °F 30.3 in WNW 1 mph 12 mph 90 % 0 in
06:52 46.6 °F 43.9 °F 30.3 in NNW 5 mph 12 mph 90 % 0 in
06:57 46.6 °F 43.9 °F 30.3 in NNW 4 mph 10 mph 90 % 0 in
07:02 46.2 °F 43.5 °F 30.3 in NNW 5 mph 10 mph 90 % 0 in
07:07 46.2 °F 43.7 °F 30.3 in North 4 mph 9 mph 91 % 0 in
07:12 46.2 °F 43.5 °F 30.3 in NNW 1 mph 11 mph 90 % 0 in
07:17 46 °F 43.5 °F 30.3 in NW 6 mph 11 mph 91 % 0 in
07:22 46.2 °F 43.7 °F 30.3 in ENE 2 mph 11 mph 91 % 0 in
07:32 46.4 °F 43.9 °F 30.3 in NE 1 mph 10 mph 91 % 0 in
07:37 46.6 °F 44.1 °F 30.3 in NNW 4 mph 7 mph 91 % 0 in
07:42 46.6 °F 44.1 °F 30.3 in NNE 3 mph 10 mph 91 % 0 in
07:52 46.6 °F 44.1 °F 30.3 in NNW 3 mph 10 mph 91 % 0 in
07:57 46.6 °F 43.9 °F 30.3 in NW 4 mph 11 mph 90 % 0 in
08:02 46.6 °F 43.9 °F 30.3 in NNW 6 mph 11 mph 90 % 0 in
08:07 46.4 °F 43.7 °F 30.3 in NNW 5 mph 11 mph 90 % 0 in
08:12 46.2 °F 43.7 °F 30.3 in NNW 3 mph 10 mph 91 % 0 in
08:17 46.2 °F 43.7 °F 30.3 in NNE 1 mph 10 mph 91 % 0 in
08:22 46.2 °F 43.7 °F 30.3 in NNW 3 mph 9 mph 91 % 0 in
08:27 46.2 °F 43.5 °F 30.3 in NW 4 mph 7 mph 90 % 0 in
08:32 46.2 °F 43.5 °F 30.3 in NW 6 mph 9 mph 90 % 0 in
08:37 46.2 °F 43.5 °F 30.3 in North 10 mph 10 mph 90 % 0 in
08:42 46.2 °F 43.5 °F 30.3 in North 8 mph 12 mph 90 % 0 in
08:47 46.2 °F 43.7 °F 30.3 in North 7 mph 16 mph 91 % 0 in
08:52 46.2 °F 43.5 °F 30.3 in NNE 10 mph 16 mph 90 % 0 in
08:57 46.2 °F 43.7 °F 30.3 in NNW 9 mph 14 mph 91 % 0 in
09:02 46.4 °F 43.9 °F 30.3 in NNW 6 mph 13 mph 91 % 0 in
09:07 46.4 °F 43.9 °F 30.3 in NNW 9 mph 13 mph 91 % 0 in
09:12 46.4 °F 43.9 °F 30.3 in NNW 2 mph 12 mph 91 % 0 in
09:17 46.2 °F 43.5 °F 30.3 in NNW 6 mph 12 mph 90 % 0 in
09:22 46.2 °F 43.7 °F 30.3 in NW 3 mph 14 mph 91 % 0 in
09:27 46.2 °F 43.7 °F 30.3 in NNE 7 mph 14 mph 91 % 0 in
09:32 46 °F 43.5 °F 30.3 in NNW 6 mph 14 mph 91 % 0 in
09:37 46 °F 43.5 °F 30.3 in North 7 mph 11 mph 91 % 0 in
09:42 46 °F 43.3 °F 30.3 in NNE 6 mph 11 mph 90 % 0 in
09:47 46.2 °F 43.5 °F 30.3 in NW 13 mph 13 mph 90 % 0 in
09:52 46.2 °F 43.5 °F 30.3 in NNW 8 mph 13 mph 90 % 0 in
09:57 46.2 °F 43.5 °F 30.3 in North 6 mph 16 mph 90 % 0 in
10:02 46.2 °F 43.5 °F 30.3 in North 6 mph 16 mph 90 % 0 in
10:07 46.2 °F 43.5 °F 30.3 in NE 5 mph 15 mph 90 % 0 in
10:12 46.6 °F 43.9 °F 30.3 in North 6 mph 15 mph 90 % 0 in
10:17 46.6 °F 43.5 °F 30.3 in NNW 8 mph 18 mph 89 % 0 in
10:22 46.8 °F 43.7 °F 30.3 in NNW 14 mph 18 mph 89 % 0 in
10:27 46.9 °F 43.9 °F 30.3 in North 5 mph 18 mph 89 % 0 in
10:32 46.9 °F 43.5 °F 30.3 in NNW 10 mph 18 mph 88 % 0 in
10:37 47.1 °F 43.7 °F 30.3 in NW 4 mph 16 mph 88 % 0 in
10:42 47.5 °F 44.1 °F 30.3 in North 8 mph 18 mph 88 % 0 in
10:47 47.7 °F 43.7 °F 30.3 in NNW 12 mph 18 mph 86 % 0 in
10:52 47.7 °F 44.1 °F 30.3 in NNW 5 mph 15 mph 87 % 0 in
10:57 47.8 °F 43.9 °F 30.3 in NNE 10 mph 15 mph 86 % 0 in
11:02 47.8 °F 43.9 °F 30.3 in NNE 11 mph 15 mph 86 % 0 in
11:07 48.4 °F 44.4 °F 30.3 in NNE 12 mph 16 mph 86 % 0 in
11:12 48.6 °F 43.9 °F 30.3 in NNW 5 mph 16 mph 84 % 0 in
11:17 48.7 °F 44.4 °F 30.3 in NE 6 mph 16 mph 85 % 0 in
11:22 48.7 °F 44.1 °F 30.3 in NNW 10 mph 16 mph 84 % 0 in
11:27 49.3 °F 45 °F 30.3 in NNW 11 mph 15 mph 85 % 0 in
11:32 49.5 °F 44.6 °F 30.3 in NNW 11 mph 15 mph 83 % 0 in
11:37 49.6 °F 44.8 °F 30.3 in North 7 mph 15 mph 83 % 0 in
11:42 50.2 °F 45.1 °F 30.4 in NNW 3 mph 15 mph 83 % 0 in
11:47 50.4 °F 44.8 °F 30.3 in North 6 mph 15 mph 81 % 0 in
11:52 50.5 °F 45.3 °F 30.4 in NW 6 mph 16 mph 82 % 0 in
11:57 50.9 °F 45.7 °F 30.3 in NE 10 mph 16 mph 82 % 0 in
12:02 51.3 °F 45.3 °F 30.3 in NE 8 mph 16 mph 80 % 0 in
12:07 51.6 °F 45.7 °F 30.3 in NNE 8 mph 14 mph 80 % 0 in
12:12 52 °F 45.3 °F 30.3 in NNE 7 mph 14 mph 78 % 0 in
12:17 52.3 °F 45.7 °F 30.3 in WNW 6 mph 12 mph 78 % 0 in
12:22 52.5 °F 45.9 °F 30.3 in NNE 3 mph 13 mph 78 % 0 in
12:27 52.7 °F 46 °F 30.3 in North 9 mph 13 mph 78 % 0 in
12:32 52.9 °F 46.6 °F 30.3 in NW 3 mph 14 mph 79 % 0 in
12:42 53.4 °F 46 °F 30.3 in NNW 6 mph 14 mph 76 % 0 in
12:47 53.2 °F 45.9 °F 30.3 in NW 7 mph 13 mph 76 % 0 in
12:52 54 °F 46.9 °F 30.3 in NW 6 mph 13 mph 77 % 0 in
12:57 54.3 °F 46.2 °F 30.3 in NNW 5 mph 16 mph 74 % 0 in
13:02 54.7 °F 46.6 °F 30.3 in North 5 mph 16 mph 74 % 0 in
13:07 54.9 °F 46.4 °F 30.3 in NNE 4 mph 12 mph 73 % 0 in
13:12 55 °F 46.9 °F 30.3 in NNE 13 mph 13 mph 74 % 0 in
13:17 55 °F 46.9 °F 30.3 in Calm   16 mph 74 % 0 in
13:22 55.2 °F 46 °F 30.3 in NNW 9 mph 16 mph 71 % 0 in
13:27 55.2 °F 46.8 °F 30.3 in NE 9 mph 16 mph 73 % 0 in
13:32 55.9 °F 46.2 °F 30.3 in NNE 8 mph 14 mph 70 % 0 in
13:37 55.9 °F 46.2 °F 30.3 in NNW 3 mph 15 mph 70 % 0 in
13:42 56.1 °F 46 °F 30.3 in NE 14 mph 15 mph 69 % 0 in
13:47 56.1 °F 46.4 °F 30.3 in NE 8 mph 17 mph 70 % 0 in
13:52 56.5 °F 46 °F 30.3 in NNW 4 mph 17 mph 68 % 0 in
13:57 56.7 °F 46.6 °F 30.3 in NE 5 mph 17 mph 69 % 0 in
14:02 56.8 °F 46 °F 30.3 in North 10 mph 16 mph 67 % 0 in
14:07 57 °F 45.9 °F 30.3 in NNE 13 mph 16 mph 66 % 0 in
14:12 57.2 °F 46.4 °F 30.3 in North 16 mph 16 mph 67 % 0 in
14:17 57.2 °F 47.1 °F 30.3 in NNE 11 mph 17 mph 69 % 0 in
14:22 57.4 °F 45.7 °F 30.3 in North 13 mph 17 mph 65 % 0 in
14:27 57.4 °F 45.7 °F 30.3 in North 13 mph 20 mph 65 % 0 in
14:32 57.2 °F 45.5 °F 30.3 in North 9 mph 20 mph 65 % 0 in
14:37 57.4 °F 46 °F 30.3 in NE 6 mph 20 mph 66 % 0 in
14:42 57.6 °F 45.5 °F 30.3 in WNW 8 mph 20 mph 64 % 0 in
14:47 57.6 °F 44.6 °F 30.3 in NNW 12 mph 21 mph 62 % 0 in
14:52 57.7 °F 45.3 °F 30.3 in North 8 mph 21 mph 63 % 0 in
14:57 57.6 °F 45.1 °F 30.3 in NNW 10 mph 21 mph 63 % 0 in
15:02 57.6 °F 45.1 °F 30.3 in NNW 6 mph 20 mph 63 % 0 in
15:07 57.6 °F 44.6 °F 30.3 in North 11 mph 20 mph 62 % 0 in
15:12 58.3 °F 45.7 °F 30.3 in NNW 12 mph 20 mph 63 % 0 in
15:17 57.9 °F 45 °F 30.3 in NNE 10 mph 20 mph 62 % 0 in
15:27 57.9 °F 43.7 °F 30.3 in WNW 5 mph 20 mph 59 % 0 in
15:32 57.7 °F 44.4 °F 30.3 in North 14 mph 21 mph 61 % 0 in
15:37 57.7 °F 43.9 °F 30.3 in NNW 7 mph 23 mph 60 % 0 in
15:42 57.9 °F 45 °F 30.3 in NE 8 mph 23 mph 62 % 0 in
15:47 58.3 °F 44.1 °F 30.3 in NE 9 mph 20 mph 59 % 0 in
15:52 58.3 °F 43.5 °F 30.3 in NNE 16 mph 19 mph 58 % 0 in
15:57 58.3 °F 43.5 °F 30.3 in North 7 mph 21 mph 58 % 0 in
16:02 58.1 °F 43.3 °F 30.3 in North 11 mph 21 mph 58 % 0 in
16:07 58.3 °F 44.1 °F 30.3 in NNE 9 mph 21 mph 59 % 0 in
16:12 57.9 °F 43.7 °F 30.3 in WNW 8 mph 22 mph 59 % 0 in
16:17 58.3 °F 44.4 °F 30.3 in NNE 10 mph 22 mph 60 % 0 in
16:22 58.5 °F 44.2 °F 30.3 in NNW 14 mph 22 mph 59 % 0 in
16:27 58.6 °F 43 °F 30.3 in NNW 11 mph 21 mph 56 % 0 in
16:32 58.6 °F 43.5 °F 30.3 in NNW 10 mph 21 mph 57 % 0 in
16:37 58.5 °F 43.3 °F 30.3 in ENE 12 mph 21 mph 57 % 0 in
16:42 58.6 °F 43.9 °F 30.3 in North 4 mph 20 mph 58 % 0 in
16:47 58.8 °F 44.6 °F 30.3 in ESE 8 mph 20 mph 59 % 0 in
16:52 58.5 °F 44.2 °F 30.3 in NNW 4 mph 19 mph 59 % 0 in
16:57 58.5 °F 43.7 °F 30.3 in NNW 7 mph 18 mph 58 % 0 in
17:02 58.8 °F 44.1 °F 30.3 in NNE 9 mph 18 mph 58 % 0 in
17:07 58.5 °F 44.2 °F 30.3 in North 13 mph 18 mph 59 % 0 in
17:12 58.5 °F 44.6 °F 30.3 in NNW 9 mph 17 mph 60 % 0 in
17:17 58.5 °F 44.2 °F 30.3 in NNW 6 mph 17 mph 59 % 0 in
17:22 58.6 °F 43.9 °F 30.3 in NNE 7 mph 17 mph 58 % 0 in
17:27 58.5 °F 44.2 °F 30.3 in North 9 mph 16 mph 59 % 0 in
17:37 58.5 °F 44.2 °F 30.3 in NNW 5 mph 18 mph 59 % 0 in
17:42 58.3 °F 44.4 °F 30.3 in NW 9 mph 18 mph 60 % 0 in
17:47 58.5 °F 44.2 °F 30.3 in NE 12 mph 18 mph 59 % 0 in
17:52 58.6 °F 44.8 °F 30.3 in NE 8 mph 17 mph 60 % 0 in
17:57 58.6 °F 44.4 °F 30.3 in North 7 mph 15 mph 59 % 0 in
18:02 58.8 °F 44.6 °F 30.3 in NNW 6 mph 13 mph 59 % 0 in
18:07 58.6 °F 43.9 °F 30.3 in NNW 4 mph 16 mph 58 % 0 in
18:17 58.3 °F 43.2 °F 30.3 in ENE 12 mph 16 mph 57 % 0 in
18:22 57.9 °F 43.2 °F 30.3 in NNW 9 mph 16 mph 58 % 0 in
18:27 57.9 °F 43.2 °F 30.3 in North 5 mph 17 mph 58 % 0 in
18:32 57.7 °F 43.5 °F 30.3 in North 4 mph 17 mph 59 % 0 in
18:42 57.6 °F 43 °F 30.3 in NNE 7 mph 17 mph 58 % 0 in
18:47 57.6 °F 43 °F 30.3 in North 11 mph 17 mph 58 % 0 in
18:52 57.6 °F 42.4 °F 30.3 in North 11 mph 18 mph 57 % 0 in
18:57 57.4 °F 43.2 °F 30.3 in NE 6 mph 18 mph 59 % 0 in
19:02 57.4 °F 43.2 °F 30.3 in NNE 9 mph 18 mph 59 % 0 in
19:07 57.4 °F 43.7 °F 30.3 in NNW 6 mph 17 mph 60 % 0 in
19:12 57 °F 43.7 °F 30.3 in ENE 5 mph 15 mph 61 % 0 in
19:17 56.8 °F 43.9 °F 30.3 in North 4 mph 14 mph 62 % 0 in
19:22 56.7 °F 43.7 °F 30.3 in NNE 9 mph 14 mph 62 % 0 in
19:27 56.5 °F 44.1 °F 30.3 in NNE 5 mph 13 mph 63 % 0 in
19:32 56.5 °F 44.4 °F 30.3 in NNW 5 mph 13 mph 64 % 0 in
19:37 56.1 °F 43.3 °F 30.3 in North 5 mph 15 mph 62 % 0 in
19:42 56.1 °F 44.1 °F 30.3 in NNE 3 mph 15 mph 64 % 0 in
19:47 55.9 °F 43.9 °F 30.3 in NNE 4 mph 15 mph 64 % 0 in
19:52 55.9 °F 43.9 °F 30.3 in NNW 9 mph 12 mph 64 % 0 in
19:57 55.8 °F 44.2 °F 30.3 in NNE 4 mph 12 mph 65 % 0 in
20:02 55.6 °F 44.1 °F 30.3 in NNW 5 mph 12 mph 65 % 0 in
20:07 55.4 °F 44.2 °F 30.3 in NNW 3 mph 10 mph 66 % 0 in
20:12 55.2 °F 44.1 °F 30.3 in NNE 4 mph 9 mph 66 % 0 in
20:17 55 °F 43.9 °F 30.3 in North 4 mph 9 mph 66 % 0 in
20:22 54.9 °F 44.1 °F 30.3 in NW 3 mph 10 mph 67 % 0 in
20:27 54.7 °F 43.9 °F 30.3 in North 6 mph 10 mph 67 % 0 in
20:32 54.3 °F 44.1 °F 30.3 in North 9 mph 9 mph 68 % 0 in
20:37 54.1 °F 43.9 °F 30.3 in NNW 4 mph 12 mph 68 % 0 in
20:42 54 °F 44.1 °F 30.3 in NNE 6 mph 12 mph 69 % 0 in
20:47 53.8 °F 44.2 °F 30.3 in North 5 mph 12 mph 70 % 0 in
20:52 53.8 °F 44.2 °F 30.3 in NNW 3 mph 11 mph 70 % 0 in
20:57 53.6 °F 44.4 °F 30.3 in NNE 7 mph 11 mph 71 % 0 in
21:02 53.4 °F 44.2 °F 30.3 in NNW 5 mph 10 mph 71 % 0 in
21:07 53.2 °F 44.4 °F 30.3 in NNE 8 mph 10 mph 72 % 0 in
21:12 53.1 °F 44.2 °F 30.3 in WNW 4 mph 12 mph 72 % 0 in
21:17 52.9 °F 44.4 °F 30.3 in NNW 5 mph 12 mph 73 % 0 in
21:22 52.7 °F 44.6 °F 30.3 in North 9 mph 12 mph 74 % 0 in
21:27 52.5 °F 44.8 °F 30.3 in NNE 4 mph 15 mph 75 % 0 in
21:32 52.3 °F 45 °F 30.3 in NE 11 mph 15 mph 76 % 0 in
21:37 52.2 °F 44.8 °F 30.3 in North 6 mph 15 mph 76 % 0 in
21:42 52.2 °F 44.8 °F 30.3 in North 2 mph 13 mph 76 % 0 in
21:47 51.8 °F 44.8 °F 30.3 in WNW 4 mph 13 mph 77 % 0 in
21:52 51.6 °F 45 °F 30.3 in North 6 mph 10 mph 78 % 0 in
22:02 51.3 °F 44.6 °F 30.3 in NNW 7 mph 10 mph 78 % 0 in
22:12 51.1 °F 44.8 °F 30.3 in NNW 7 mph 9 mph 79 % 0 in
22:22 50.5 °F 44.2 °F 30.3 in North 3 mph 10 mph 79 % 0 in
22:27 50.4 °F 44.1 °F 30.3 in NE 2 mph 10 mph 79 % 0 in
22:32 50.2 °F 43.9 °F 30.3 in NNW 4 mph 8 mph 79 % 0 in
22:37 50.2 °F 43.9 °F 30.3 in NE 5 mph 9 mph 79 % 0 in
22:42 49.8 °F 43.5 °F 30.3 in NNW 2 mph 9 mph 79 % 0 in
22:47 49.6 °F 43.7 °F 30.3 in NNE 3 mph 9 mph 80 % 0 in
22:52 49.5 °F 43.5 °F 30.3 in NNW 2 mph 7 mph 80 % 0 in
22:57 49.3 °F 43.3 °F 30.3 in NE 2 mph 8 mph 80 % 0 in
23:02 49.3 °F 43.3 °F 30.3 in North 1 mph 8 mph 80 % 0 in
23:07 48.9 °F 43.3 °F 30.3 in NNW 2 mph 7 mph 81 % 0 in
23:12 48.7 °F 43.2 °F 30.3 in NE 2 mph 6 mph 81 % 0 in
23:17 48.7 °F 43.2 °F 30.3 in NNE 5 mph 5 mph 81 % 0 in
23:22 48.6 °F 43 °F 30.3 in NNE 3 mph 9 mph 81 % 0 in
23:32 48.9 °F 43 °F 30.3 in NE 3 mph 8 mph 80 % 0 in
23:37 48.7 °F 42.4 °F 30.3 in NNE 4 mph 9 mph 79 % 0 in
23:42 48.6 °F 42.6 °F 30.3 in NNW 2 mph 9 mph 80 % 0 in
23:47 48.4 °F 42.3 °F 30.3 in NE 3 mph 9 mph 79 % 0 in
23:52 48.2 °F 42.3 °F 30.3 in NNE 4 mph 8 mph 80 % 0 in
23:57 48.2 °F 42.1 °F 30.3 in NNW 4 mph 8 mph 79 % 0 in
Meteo18
Compliments of Weather Underground - 4 mb

Script developed by  Jim McMurry - jmcmurry@mwt.net Adapted for the template by  Wim van der Kuil - Leuven-Template.eu

You find our weather info also at:

European Weather Network

Weather Underground

Equipment we use:

Weather-station
Davis Vue

Weather-program
Meteohub

Weather-server
Raspberry PI 2 B+

Provider
1 and 1

Davis Vue

Meteohub

Raspberry PI 2 B+

1 and 1